Terminal Aerodrome Forecast
Issued by NWS

Home | Current Version | Previous Version | Text Only | Print | Product List | Glossary On
Versions: 1 2 3 4 5 6 7 8 9 10 11 12 13 14 15
000
FTUS43 KGRR 272352
TAFJXN
TAF
KJXN 272352Z 2800/2824 16007KT P6SM VCSH OVC100
     FM280400 17008KT P6SM VCSH BKN080
     FM281500 20010KT P6SM VCSH BKN060
     FM281800 20010G19KT P6SM VCTS BKN050CB=

USA.gov is the U.S. government's official web portal to all federal, state and local government web resources and services.